createdAt,value
2023-12-17T00:00:05.149Z,12.08
2023-12-17T00:02:32.067Z,12.04
2023-12-17T00:04:59.405Z,11.66
2023-12-17T00:07:26.212Z,11.09
2023-12-17T00:09:53.353Z,11.19
2023-12-17T00:12:20.324Z,11.17
2023-12-17T00:14:47.266Z,11.07
2023-12-17T00:17:14.657Z,10.44
2023-12-17T00:19:42.519Z,10.55
2023-12-17T00:22:09.889Z,10.94
2023-12-17T00:24:36.793Z,10.84
2023-12-17T00:27:04.882Z,10.46
2023-12-17T00:29:31.795Z,10.02
2023-12-17T00:32:01.146Z,10.31
2023-12-17T00:34:29.034Z,10.06
2023-12-17T00:36:56.031Z,10.01
2023-12-17T00:39:22.915Z,10.14
2023-12-17T00:42:06.694Z,9.70
2023-12-17T00:44:33.872Z,9.90
2023-12-17T00:47:01.096Z,10.38
2023-12-17T00:49:28.209Z,10.52
2023-12-17T00:51:55.099Z,10.15
2023-12-17T00:54:23.253Z,9.97
2023-12-17T00:56:50.235Z,10.41
2023-12-17T00:59:17.432Z,9.94
2023-12-17T01:01:44.585Z,10.57
2023-12-17T01:04:11.324Z,9.77
2023-12-17T01:06:38.182Z,9.43
2023-12-17T01:09:05.128Z,9.68
2023-12-17T01:11:33.245Z,9.54
2023-12-17T01:17:55.418Z,10.43
2023-12-17T01:20:22.305Z,10.72
2023-12-17T01:22:49.275Z,11.40
2023-12-17T01:25:16.189Z,10.38
2023-12-17T01:27:43.054Z,10.57
2023-12-17T01:30:14.890Z,11.16
2023-12-17T01:32:42.437Z,10.76
2023-12-17T01:35:09.240Z,10.86
2023-12-17T01:37:36.280Z,10.88
2023-12-17T01:40:03.354Z,10.34
2023-12-17T01:42:31.758Z,10.11
2023-12-17T01:44:58.989Z,9.43
2023-12-17T01:47:26.114Z,9.35
2023-12-17T01:49:53.131Z,9.72
2023-12-17T01:52:20.002Z,9.68
2023-12-17T01:54:48.349Z,9.67
2023-12-17T01:57:15.281Z,9.30
2023-12-17T01:59:42.063Z,9.56
2023-12-17T02:02:11.626Z,10.00
2023-12-17T02:04:39.486Z,10.33
2023-12-17T02:07:07.510Z,11.56
2023-12-17T02:09:34.349Z,11.43
2023-12-17T02:12:01.322Z,11.59
2023-12-17T02:14:28.543Z,11.71
2023-12-17T02:16:55.313Z,12.27
2023-12-17T02:19:22.365Z,13.85
2023-12-17T02:25:43.773Z,14.47
2023-12-17T02:28:10.636Z,15.32
2023-12-17T02:30:38.664Z,14.64
2023-12-17T02:36:59.624Z,18.07
2023-12-17T02:39:26.696Z,18.56
2023-12-17T02:41:53.561Z,18.72
2023-12-17T02:44:21.277Z,19.24
2023-12-17T02:46:49.277Z,18.43
2023-12-17T02:49:16.798Z,18.21
2023-12-17T02:51:44.434Z,19.30
2023-12-17T02:54:14.762Z,19.72
2023-12-17T02:56:42.127Z,20.13
2023-12-17T02:59:15.916Z,19.58
2023-12-17T03:01:44.570Z,19.24
2023-12-17T03:04:14.867Z,19.86
2023-12-17T03:06:44.465Z,21.58
2023-12-17T03:09:11.646Z,22.62
2023-12-17T03:11:39.903Z,22.84
2023-12-17T03:14:09.609Z,24.29
2023-12-17T03:16:36.461Z,23.97
2023-12-17T03:19:03.696Z,23.83
2023-12-17T03:21:41.308Z,24.21
2023-12-17T03:24:08.381Z,24.07
2023-12-17T03:26:40.503Z,23.80
2023-12-17T03:29:21.702Z,23.87
2023-12-17T03:31:48.754Z,23.27
2023-12-17T03:34:15.973Z,23.49
2023-12-17T03:36:42.776Z,22.62
2023-12-17T03:39:10.471Z,23.32
2023-12-17T03:41:37.445Z,22.41
2023-12-17T03:44:05.369Z,21.98
2023-12-17T03:46:32.198Z,21.62
2023-12-17T03:49:00.174Z,21.33
2023-12-17T03:51:27.434Z,21.14
2023-12-17T03:53:55.915Z,21.68
2023-12-17T03:56:22.724Z,21.28
2023-12-17T03:58:50.701Z,20.23
2023-12-17T04:01:17.909Z,20.31
2023-12-17T04:03:45.130Z,20.68
2023-12-17T04:06:13.689Z,20.32
2023-12-17T04:08:43.554Z,20.24
2023-12-17T04:11:10.788Z,20.18
2023-12-17T04:13:58.874Z,20.21
2023-12-17T04:17:03.340Z,19.13
2023-12-17T04:19:30.379Z,20.19
2023-12-17T04:21:58.874Z,20.54
2023-12-17T04:24:25.720Z,21.55
2023-12-17T04:26:52.631Z,21.34
2023-12-17T04:29:20.670Z,21.02
2023-12-17T04:31:48.383Z,19.68
2023-12-17T04:34:15.651Z,20.98
2023-12-17T04:36:43.877Z,21.11
2023-12-17T04:39:10.866Z,21.58
2023-12-17T04:41:38.150Z,21.11
2023-12-17T04:44:04.967Z,21.30
2023-12-17T04:46:31.750Z,20.03
2023-12-17T04:49:35.549Z,20.82
2023-12-17T04:52:02.538Z,20.47
2023-12-17T04:54:29.795Z,22.32
2023-12-17T04:56:56.709Z,21.54
2023-12-17T04:59:23.896Z,20.61
2023-12-17T05:01:51.859Z,20.10
2023-12-17T05:04:20.132Z,19.68
2023-12-17T05:06:48.095Z,19.66
2023-12-17T05:09:16.034Z,19.89
2023-12-17T05:11:43.208Z,20.93
2023-12-17T05:14:10.279Z,21.01
2023-12-17T05:16:37.163Z,20.99
2023-12-17T05:19:05.405Z,21.19
2023-12-17T05:21:32.450Z,21.18
2023-12-17T05:23:59.273Z,21.68
2023-12-17T05:26:26.196Z,21.11
2023-12-17T05:28:52.974Z,20.93
2023-12-17T05:31:20.820Z,22.26
2023-12-17T05:33:49.185Z,21.58
2023-12-17T05:36:17.578Z,21.45
2023-12-17T05:38:47.373Z,22.34
2023-12-17T05:41:14.952Z,22.14
2023-12-17T05:43:41.756Z,21.31
2023-12-17T05:46:08.995Z,21.36
2023-12-17T05:48:37.133Z,21.30
2023-12-17T05:51:08.319Z,22.29
2023-12-17T05:53:41.440Z,22.35
2023-12-17T05:56:14.310Z,21.91
2023-12-17T05:58:41.248Z,22.40
2023-12-17T06:01:10.323Z,22.62
2023-12-17T06:03:38.902Z,22.10
2023-12-17T06:06:07.866Z,22.72
2023-12-17T06:08:35.561Z,23.08
2023-12-17T06:11:02.418Z,22.61
2023-12-17T06:13:29.432Z,22.47
2023-12-17T06:15:56.433Z,23.60
2023-12-17T06:18:23.495Z,23.52
2023-12-17T06:20:50.396Z,22.86
2023-12-17T06:23:17.374Z,23.37
2023-12-17T06:25:45.484Z,23.34
2023-12-17T06:28:12.226Z,22.31
2023-12-17T06:30:40.569Z,21.76
2023-12-17T06:33:07.480Z,21.87
2023-12-17T06:35:34.420Z,21.36
2023-12-17T06:38:01.391Z,21.81
2023-12-17T06:40:29.467Z,22.30
2023-12-17T06:42:56.330Z,21.07
2023-12-17T06:45:24.389Z,20.43
2023-12-17T06:47:51.325Z,20.23
2023-12-17T06:50:18.283Z,20.28
2023-12-17T06:52:45.522Z,20.13
2023-12-17T06:55:12.336Z,20.64
2023-12-17T06:57:39.715Z,21.16
2023-12-17T07:00:09.249Z,20.66
2023-12-17T07:02:37.702Z,20.81
2023-12-17T07:05:04.839Z,21.11
2023-12-17T07:07:31.987Z,21.05
2023-12-17T07:09:59.843Z,20.73
2023-12-17T07:12:26.743Z,21.16
2023-12-17T07:14:53.798Z,21.66
2023-12-17T07:17:20.713Z,22.01
2023-12-17T07:23:41.043Z,22.49
2023-12-17T07:26:07.804Z,21.95
2023-12-17T07:28:35.005Z,22.46
2023-12-17T07:31:02.258Z,22.79
2023-12-17T07:33:29.256Z,22.62
2023-12-17T07:35:56.137Z,22.72
2023-12-17T07:38:22.955Z,23.37
2023-12-17T07:40:49.997Z,23.74
2023-12-17T07:43:17.128Z,23.26
2023-12-17T07:45:43.943Z,22.82
2023-12-17T07:48:10.971Z,22.13
2023-12-17T07:50:37.996Z,22.10
2023-12-17T07:53:04.887Z,22.02
2023-12-17T07:55:31.662Z,22.78
2023-12-17T07:57:58.515Z,22.99
2023-12-17T08:00:25.372Z,22.68
2023-12-17T08:02:52.663Z,22.32
2023-12-17T08:05:20.563Z,22.78
2023-12-17T08:07:47.454Z,22.46
2023-12-17T08:10:14.247Z,22.66
2023-12-17T08:12:41.598Z,22.40
2023-12-17T08:15:10.075Z,21.84
2023-12-17T08:17:39.056Z,22.70
2023-12-17T08:20:07.258Z,22.71
2023-12-17T08:22:34.054Z,22.67
2023-12-17T08:25:01.938Z,22.02
2023-12-17T08:27:28.906Z,22.84
2023-12-17T08:29:56.101Z,21.96
2023-12-17T08:32:23.393Z,21.94
2023-12-17T08:34:50.307Z,20.62
2023-12-17T08:37:18.444Z,20.39
2023-12-17T08:39:45.269Z,22.30
2023-12-17T08:42:12.449Z,22.13
2023-12-17T08:44:40.429Z,22.16
2023-12-17T08:47:07.392Z,21.89
2023-12-17T08:49:34.823Z,21.83
2023-12-17T08:52:01.841Z,22.55
2023-12-17T08:54:28.794Z,22.30
2023-12-17T08:56:55.653Z,22.13
2023-12-17T08:59:33.261Z,22.00
2023-12-17T09:02:03.071Z,22.37
2023-12-17T09:04:31.301Z,21.99
2023-12-17T09:06:59.640Z,21.89
2023-12-17T09:09:26.504Z,22.11
2023-12-17T09:12:20.181Z,21.96
2023-12-17T09:14:47.116Z,22.66
2023-12-17T09:17:13.958Z,21.17
2023-12-17T09:19:40.890Z,21.83
2023-12-17T09:22:10.026Z,20.68
2023-12-17T09:24:36.995Z,20.99
2023-12-17T09:27:03.934Z,21.24
2023-12-17T09:29:31.874Z,22.04
2023-12-17T09:32:00.524Z,22.11
2023-12-17T09:34:39.980Z,21.56
2023-12-17T09:37:07.907Z,22.11
2023-12-17T09:39:39.918Z,21.49
2023-12-17T09:42:27.169Z,21.88
2023-12-17T09:44:56.895Z,22.42
2023-12-17T09:47:25.460Z,21.75
2023-12-17T09:49:52.476Z,22.55
2023-12-17T09:52:19.935Z,22.14
2023-12-17T09:54:49.564Z,22.36
2023-12-17T09:57:18.062Z,21.95
2023-12-17T09:59:45.407Z,21.59
2023-12-17T10:02:15.772Z,22.04
2023-12-17T10:04:48.403Z,22.95
2023-12-17T10:07:19.534Z,23.40
2023-12-17T10:09:46.364Z,22.56
2023-12-17T10:12:15.532Z,22.17
2023-12-17T10:14:43.508Z,22.56
2023-12-17T10:17:12.744Z,22.44
2023-12-17T10:19:39.762Z,22.16
2023-12-17T10:22:07.380Z,22.63
2023-12-17T10:24:37.690Z,23.36
2023-12-17T10:27:19.046Z,22.45
2023-12-17T10:29:50.281Z,22.21
2023-12-17T10:32:20.636Z,23.28
2023-12-17T10:34:49.902Z,22.67
2023-12-17T10:37:21.569Z,23.61
2023-12-17T10:39:48.816Z,24.45
2023-12-17T10:42:20.255Z,24.97
2023-12-17T10:44:47.542Z,22.26
2023-12-17T10:47:16.462Z,22.47
2023-12-17T10:49:44.244Z,22.47
2023-12-17T10:52:11.036Z,22.37
2023-12-17T10:54:41.158Z,23.49
2023-12-17T10:57:10.450Z,23.23
2023-12-17T10:59:40.978Z,22.38
2023-12-17T11:02:08.865Z,22.94
2023-12-17T11:04:37.174Z,21.81
2023-12-17T11:07:04.074Z,21.78
2023-12-17T11:09:30.896Z,21.67
2023-12-17T11:11:57.890Z,22.66
2023-12-17T11:14:39.383Z,21.97
2023-12-17T11:17:15.086Z,23.24
2023-12-17T11:19:59.010Z,23.05
2023-12-17T11:22:25.991Z,22.18
2023-12-17T11:24:59.729Z,22.17
2023-12-17T11:27:26.952Z,22.62
2023-12-17T11:29:56.422Z,22.12
2023-12-17T11:32:35.112Z,22.02
2023-12-17T11:35:01.913Z,23.60
2023-12-17T11:37:29.372Z,22.96
2023-12-17T11:39:56.131Z,24.42
2023-12-17T11:42:23.023Z,26.27
2023-12-17T11:44:51.084Z,25.96
2023-12-17T11:47:25.189Z,23.14
2023-12-17T11:49:52.080Z,24.25
2023-12-17T11:52:18.871Z,23.91
2023-12-17T11:54:45.696Z,23.22
2023-12-17T11:57:30.754Z,24.41
2023-12-17T11:59:58.070Z,25.05
2023-12-17T12:02:25.828Z,24.07
2023-12-17T12:04:53.681Z,25.72
2023-12-17T12:07:21.574Z,26.17
2023-12-17T12:09:49.322Z,24.59
2023-12-17T12:12:25.139Z,24.27
2023-12-17T12:14:52.296Z,25.00
2023-12-17T12:17:37.373Z,24.58
2023-12-17T12:20:08.935Z,24.94
2023-12-17T12:22:45.366Z,23.52
2023-12-17T12:25:18.945Z,21.28
2023-12-17T12:28:23.534Z,21.88
2023-12-17T12:30:51.563Z,22.58
2023-12-17T12:33:18.902Z,22.73
2023-12-17T12:35:46.616Z,22.22
2023-12-17T12:38:23.701Z,23.07
2023-12-17T12:40:51.255Z,24.24
2023-12-17T12:43:18.318Z,24.73
2023-12-17T12:45:52.444Z,23.50
2023-12-17T12:48:26.121Z,24.18
2023-12-17T12:50:53.190Z,22.77
2023-12-17T12:53:26.041Z,21.79
2023-12-17T12:55:54.129Z,22.34
2023-12-17T12:58:21.067Z,22.60
2023-12-17T13:00:48.746Z,22.63
2023-12-17T13:03:16.453Z,22.51
2023-12-17T13:05:43.808Z,21.76
2023-12-17T13:08:10.777Z,22.02
2023-12-17T13:10:37.615Z,22.03
2023-12-17T13:13:06.194Z,22.58
2023-12-17T13:15:35.383Z,22.96
2023-12-17T13:18:04.537Z,21.79
2023-12-17T13:20:58.542Z,22.34
2023-12-17T13:23:25.817Z,23.10
2023-12-17T13:25:53.392Z,23.93
2023-12-17T13:28:21.096Z,24.20
2023-12-17T13:30:48.173Z,24.39
2023-12-17T13:33:17.970Z,24.57
2023-12-17T13:35:45.160Z,24.63
2023-12-17T13:38:12.879Z,24.16
2023-12-17T13:40:41.320Z,24.25
2023-12-17T13:43:08.221Z,23.43
2023-12-17T13:45:35.149Z,23.17
2023-12-17T13:48:01.989Z,21.85
2023-12-17T13:50:29.060Z,21.75
2023-12-17T13:52:56.108Z,22.61
2023-12-17T13:55:23.016Z,23.10
2023-12-17T13:57:50.056Z,23.43
2023-12-17T14:00:17.940Z,23.83
2023-12-17T14:02:44.923Z,23.27
2023-12-17T14:05:14.339Z,23.67
2023-12-17T14:07:42.092Z,23.24
2023-12-17T14:10:09.106Z,23.18
2023-12-17T14:12:36.165Z,23.23
2023-12-17T14:15:03.363Z,22.82
2023-12-17T14:17:30.272Z,23.12
2023-12-17T14:19:57.121Z,22.49
2023-12-17T14:22:24.268Z,22.80
2023-12-17T14:24:52.349Z,21.27
2023-12-17T14:27:19.832Z,22.61
2023-12-17T14:29:47.398Z,22.86
2023-12-17T14:32:17.371Z,23.33
2023-12-17T14:34:59.297Z,23.54
2023-12-17T14:37:26.109Z,23.16
2023-12-17T14:39:52.929Z,23.54
2023-12-17T14:42:19.997Z,25.13
2023-12-17T14:44:49.659Z,24.80
2023-12-17T14:47:16.893Z,23.08
2023-12-17T14:49:44.299Z,22.17
2023-12-17T14:52:12.359Z,22.18
2023-12-17T14:54:39.498Z,22.85
2023-12-17T14:57:06.499Z,22.40
2023-12-17T14:59:33.879Z,21.97
2023-12-17T15:02:00.855Z,23.08
2023-12-17T15:04:28.056Z,24.08
2023-12-17T15:06:55.308Z,23.06
2023-12-17T15:09:23.099Z,24.87
2023-12-17T15:11:50.593Z,26.61
2023-12-17T15:14:20.119Z,24.89
2023-12-17T15:16:48.626Z,25.03
2023-12-17T15:19:17.951Z,24.56
2023-12-17T15:21:53.814Z,25.99
2023-12-17T15:24:20.872Z,27.20
2023-12-17T15:27:30.194Z,26.41
2023-12-17T15:29:57.241Z,24.93
2023-12-17T15:32:24.465Z,25.71
2023-12-17T15:34:58.270Z,27.64
2023-12-17T15:37:25.641Z,26.39
2023-12-17T15:39:52.717Z,27.15
2023-12-17T15:42:19.579Z,26.51
2023-12-17T15:44:46.774Z,28.08
2023-12-17T15:47:13.652Z,28.03
2023-12-17T15:49:40.584Z,27.73
2023-12-17T15:52:09.020Z,25.84
2023-12-17T15:54:35.839Z,25.81
2023-12-17T15:57:02.968Z,25.51
2023-12-17T15:59:30.413Z,24.44
2023-12-17T16:02:01.550Z,24.34
2023-12-17T16:04:28.432Z,24.35
2023-12-17T16:06:55.264Z,24.18
2023-12-17T16:09:23.904Z,24.93
2023-12-17T16:11:53.759Z,28.96
2023-12-17T16:14:20.640Z,27.02
2023-12-17T16:16:48.621Z,26.77
2023-12-17T16:19:27.807Z,29.77
2023-12-17T16:21:55.549Z,26.70
2023-12-17T16:24:22.437Z,26.71
2023-12-17T16:26:50.630Z,26.26
2023-12-17T16:29:17.517Z,27.47
2023-12-17T16:31:46.364Z,27.73
2023-12-17T16:34:13.548Z,26.66
2023-12-17T16:36:41.690Z,28.25
2023-12-17T16:39:08.773Z,28.85
2023-12-17T16:41:36.252Z,28.61
2023-12-17T16:44:05.981Z,28.51
2023-12-17T16:46:33.136Z,28.97
2023-12-17T16:52:28.241Z,26.73
2023-12-17T16:54:56.125Z,28.83
2023-12-17T16:57:23.016Z,28.70
2023-12-17T16:59:49.963Z,29.86
2023-12-17T17:02:16.828Z,29.79
2023-12-17T17:04:44.065Z,29.65
2023-12-17T17:07:10.866Z,28.51
2023-12-17T17:09:38.226Z,29.41
2023-12-17T17:12:05.348Z,28.31
2023-12-17T17:14:32.216Z,27.59
2023-12-17T17:16:59.139Z,29.45
2023-12-17T17:19:26.004Z,27.72
2023-12-17T17:21:56.013Z,27.75
2023-12-17T17:24:22.946Z,27.44
2023-12-17T17:26:49.800Z,27.46
2023-12-17T17:29:16.939Z,27.49
2023-12-17T17:32:03.814Z,26.96
2023-12-17T17:34:49.920Z,26.79
2023-12-17T17:37:36.281Z,26.28
2023-12-17T17:40:04.901Z,27.11
2023-12-17T17:42:31.813Z,28.86
2023-12-17T17:44:58.660Z,30.59
2023-12-17T17:47:25.532Z,28.70
2023-12-17T17:49:52.403Z,29.45
2023-12-17T17:52:19.340Z,29.42
2023-12-17T17:54:49.782Z,30.16
2023-12-17T17:57:17.879Z,32.22
2023-12-17T17:59:45.095Z,30.55
2023-12-17T18:02:12.279Z,27.98
2023-12-17T18:04:39.482Z,27.98
2023-12-17T18:07:06.321Z,30.51
2023-12-17T18:09:34.079Z,29.48
2023-12-17T18:12:01.178Z,30.19
2023-12-17T18:14:28.005Z,29.81
2023-12-17T18:16:54.841Z,28.20
2023-12-17T18:19:21.742Z,28.26
2023-12-17T18:21:48.517Z,29.26
2023-12-17T18:24:15.365Z,28.61
2023-12-17T18:26:43.877Z,28.88
2023-12-17T18:29:11.217Z,29.02
2023-12-17T18:31:38.073Z,28.99
2023-12-17T18:34:04.956Z,28.98
2023-12-17T18:36:32.288Z,30.08
2023-12-17T18:38:59.154Z,30.95
2023-12-17T18:41:26.513Z,30.67
2023-12-17T18:43:53.269Z,29.46
2023-12-17T18:46:21.034Z,29.76
2023-12-17T18:48:48.954Z,28.85
2023-12-17T18:51:17.023Z,29.51
2023-12-17T18:53:44.104Z,30.16
2023-12-17T18:56:11.518Z,29.94
2023-12-17T18:58:38.689Z,28.47
2023-12-17T19:01:05.775Z,28.21
2023-12-17T19:03:32.712Z,28.60
2023-12-17T19:05:59.568Z,26.91
2023-12-17T19:08:26.347Z,28.43
2023-12-17T19:10:54.040Z,27.42
2023-12-17T19:13:21.213Z,26.95
2023-12-17T19:15:48.151Z,26.09
2023-12-17T19:18:16.549Z,25.85
2023-12-17T19:20:43.667Z,25.09
2023-12-17T19:23:10.957Z,24.26
2023-12-17T19:25:37.831Z,23.64
2023-12-17T19:28:04.960Z,22.89
2023-12-17T19:30:33.225Z,22.85
2023-12-17T19:33:00.259Z,23.40
2023-12-17T19:35:27.537Z,22.84
2023-12-17T19:37:54.657Z,23.13
2023-12-17T19:40:21.563Z,22.81
2023-12-17T19:42:48.415Z,23.32
2023-12-17T19:45:15.805Z,23.04
2023-12-17T19:47:42.774Z,23.00
2023-12-17T19:50:10.203Z,23.69
2023-12-17T19:52:38.115Z,23.87
2023-12-17T19:55:07.258Z,24.35
2023-12-17T19:57:34.120Z,24.37
2023-12-17T20:00:01.167Z,24.99
2023-12-17T20:02:28.075Z,25.86
2023-12-17T20:04:55.319Z,25.07
2023-12-17T20:07:22.227Z,25.50
2023-12-17T20:09:49.787Z,27.10
2023-12-17T20:12:16.703Z,26.41
2023-12-17T20:14:43.735Z,26.08
2023-12-17T20:17:10.508Z,29.47
2023-12-17T20:19:38.558Z,33.30
2023-12-17T20:22:05.514Z,33.22
2023-12-17T20:24:32.381Z,30.00
2023-12-17T20:26:59.328Z,27.72
2023-12-17T20:29:26.091Z,25.85
2023-12-17T20:32:11.591Z,26.77
2023-12-17T20:34:39.717Z,27.53
2023-12-17T20:37:06.563Z,25.86
2023-12-17T20:39:33.980Z,26.04
2023-12-17T20:42:00.822Z,25.39
2023-12-17T20:44:28.199Z,26.93
2023-12-17T20:46:55.497Z,28.14
2023-12-17T20:49:22.713Z,27.79
2023-12-17T20:51:49.594Z,28.96
2023-12-17T20:54:16.873Z,28.44
2023-12-17T20:56:43.916Z,28.45
2023-12-17T20:59:11.241Z,27.74
2023-12-17T21:01:38.060Z,28.13
2023-12-17T21:04:05.973Z,26.43
2023-12-17T21:06:32.889Z,26.80
2023-12-17T21:09:01.526Z,26.25
2023-12-17T21:11:29.401Z,26.49
2023-12-17T21:17:18.420Z,27.94
2023-12-17T21:19:46.732Z,27.38
2023-12-17T21:22:14.019Z,27.84
2023-12-17T21:24:41.039Z,28.16
2023-12-17T21:27:20.998Z,28.80
2023-12-17T21:29:48.078Z,27.93
2023-12-17T21:32:16.230Z,28.42
2023-12-17T21:34:44.119Z,29.79
2023-12-17T21:37:11.016Z,30.30
2023-12-17T21:39:38.160Z,30.24
2023-12-17T21:42:06.319Z,29.02
2023-12-17T21:44:33.486Z,28.54
2023-12-17T21:47:00.378Z,28.09
2023-12-17T21:49:28.111Z,27.59
2023-12-17T21:52:06.251Z,26.99
2023-12-17T21:54:34.608Z,27.85
2023-12-17T21:57:17.257Z,27.82
2023-12-17T21:59:46.957Z,28.49
2023-12-17T22:02:13.904Z,28.54
2023-12-17T22:04:46.737Z,28.01
2023-12-17T22:07:13.886Z,28.20
2023-12-17T22:09:40.889Z,28.56
2023-12-17T22:12:08.073Z,29.87
2023-12-17T22:14:35.301Z,28.92
2023-12-17T22:17:02.538Z,28.79
2023-12-17T22:19:29.877Z,27.94
2023-12-17T22:21:57.381Z,27.56
2023-12-17T22:24:24.314Z,27.38
2023-12-17T22:26:51.786Z,28.94
2023-12-17T22:29:19.719Z,26.27
2023-12-17T22:31:46.786Z,25.03
2023-12-17T22:34:13.845Z,25.25
2023-12-17T22:36:41.123Z,25.33
2023-12-17T22:39:09.194Z,25.58
2023-12-17T22:41:38.778Z,25.95
2023-12-17T22:44:08.405Z,25.68
2023-12-17T22:47:13.362Z,24.70
2023-12-17T22:49:40.488Z,24.98
2023-12-17T22:52:08.341Z,23.92
2023-12-17T22:54:35.965Z,26.56
2023-12-17T22:57:03.531Z,25.27
2023-12-17T22:59:33.968Z,26.52
2023-12-17T23:02:00.788Z,26.71
2023-12-17T23:04:28.781Z,25.53
2023-12-17T23:06:56.231Z,25.98
2023-12-17T23:09:23.630Z,26.21
2023-12-17T23:11:51.607Z,26.89
2023-12-17T23:14:18.722Z,26.60
2023-12-17T23:16:45.636Z,25.07
2023-12-17T23:19:13.136Z,26.09
2023-12-17T23:21:40.026Z,27.04
2023-12-17T23:24:10.015Z,27.50
2023-12-17T23:26:49.319Z,26.27
2023-12-17T23:29:16.343Z,29.53
2023-12-17T23:31:44.936Z,27.35
2023-12-17T23:34:12.151Z,27.53
2023-12-17T23:36:39.555Z,27.01
2023-12-17T23:39:06.443Z,28.28
2023-12-17T23:41:33.348Z,34.37
2023-12-17T23:44:00.202Z,31.99
2023-12-17T23:46:27.012Z,28.46
2023-12-17T23:48:54.924Z,27.61
2023-12-17T23:51:22.156Z,28.07
2023-12-17T23:53:48.975Z,27.35
2023-12-17T23:56:18.554Z,26.46
2023-12-17T23:58:45.837Z,26.57
